Terminal Aerodrome Forecast
Issued by NWS Charleston, WV

Home | Current Version | Previous Version | Text Only | Print | Product List | Glossary On
Versions: 1 2 3 4 5 6 7 8 9 10 11 12 13 14 15 16 17 18 19 20 21 22 23 24 25 26 27 28 29 30 31 32 33 34 35 36 37 38 39 40 41 42 43 44 45 46 47 48 49 50
000
FTUS41 KRLX 191926 AAA
TAFBKW
TAF AMD
KBKW 191926Z 1919/2018 18010G22KT 5SM TSRA BR OVC035CB
     FM192000 16010G19KT 6SM -SHRA OVC040
     FM200000 16006KT 4SM -SHRA BR OVC025
     FM200300 15010G17KT P6SM SHRA BKN030
     FM200500 17010G18KT P6SM BKN035
     FM201400 18012KT P6SM OVC025=

USA.gov is the U.S. government's official web portal to all federal, state and local government web resources and services.